createdAt,value
2022-08-17T00:00:03.117Z,88250.97
2022-08-17T00:02:47.864Z,88260.47
2022-08-17T00:05:32.548Z,88256.25
2022-08-17T00:08:17.508Z,88252.34
2022-08-17T00:11:02.226Z,88246.31
2022-08-17T00:13:46.990Z,88242.78
2022-08-17T00:16:56.397Z,88243.72
2022-08-17T00:19:36.657Z,88232.22
2022-08-17T00:22:34.726Z,88224.84
2022-08-17T00:25:20.869Z,88220.06
2022-08-17T00:28:05.750Z,88220.81
2022-08-17T00:30:53.344Z,88221.09
2022-08-17T00:33:38.603Z,88214.44
2022-08-17T00:36:23.295Z,88217.25
2022-08-17T00:39:08.065Z,88206.72
2022-08-17T00:41:52.786Z,88203.91
2022-08-17T00:44:37.525Z,88196.75
2022-08-17T00:47:22.514Z,88204.41
2022-08-17T00:50:07.204Z,88209.13
2022-08-17T00:52:52.268Z,88211.28
2022-08-17T00:55:37.370Z,88212.00
2022-08-17T00:58:30.452Z,88212.63
2022-08-17T01:01:22.077Z,88209.69
2022-08-17T01:04:07.232Z,88208.22
2022-08-17T01:06:52.203Z,88213.53
2022-08-17T01:09:36.946Z,88214.09
2022-08-17T01:12:21.774Z,88218.50
2022-08-17T01:15:06.424Z,88227.19
2022-08-17T01:17:51.224Z,88225.81
2022-08-17T01:20:47.946Z,88226.91
2022-08-17T01:23:33.279Z,88230.38
2022-08-17T01:26:17.949Z,88238.16
2022-08-17T01:29:02.856Z,88234.31
2022-08-17T01:31:47.576Z,88232.13
2022-08-17T01:34:42.460Z,88235.41
2022-08-17T01:37:28.333Z,88233.31
2022-08-17T01:40:13.190Z,88239.63
2022-08-17T01:42:58.393Z,88249.25
2022-08-17T01:45:43.337Z,88254.47
2022-08-17T01:48:28.154Z,88253.16
2022-08-17T01:51:12.957Z,88256.69
2022-08-17T01:53:57.810Z,88248.34
2022-08-17T01:56:42.953Z,88251.69
2022-08-17T01:59:27.705Z,88254.94
2022-08-17T02:02:12.517Z,88246.38
2022-08-17T02:05:16.674Z,88245.41
2022-08-17T02:08:01.299Z,88237.06
2022-08-17T02:10:47.178Z,88231.63
2022-08-17T02:13:32.463Z,88228.81
2022-08-17T02:16:17.097Z,88246.09
2022-08-17T02:19:01.852Z,88235.97
2022-08-17T02:21:46.417Z,88234.19
2022-08-17T02:24:58.279Z,88235.50
2022-08-17T02:27:36.123Z,88240.13
2022-08-17T02:31:01.946Z,88240.94
2022-08-17T02:33:41.637Z,88240.91
2022-08-17T02:36:27.576Z,88238.94
2022-08-17T02:39:12.343Z,88242.66
2022-08-17T02:41:57.077Z,88243.59
2022-08-17T02:44:41.785Z,88245.50
2022-08-17T02:47:26.585Z,88232.31
2022-08-17T02:50:11.323Z,88223.09
2022-08-17T02:53:01.778Z,88213.34
2022-08-17T02:55:47.664Z,88213.25
2022-08-17T02:58:35.777Z,88205.59
2022-08-17T03:01:21.177Z,88195.03
2022-08-17T03:04:06.400Z,88195.16
2022-08-17T03:06:51.146Z,88194.75
2022-08-17T03:09:35.853Z,88188.88
2022-08-17T03:12:20.418Z,88188.66
2022-08-17T03:15:05.085Z,88184.97
2022-08-17T03:17:49.883Z,88183.44
2022-08-17T03:20:34.762Z,88177.69
2022-08-17T03:23:23.985Z,88170.91
2022-08-17T03:26:12.269Z,88171.09
2022-08-17T03:29:00.535Z,88175.22
2022-08-17T03:31:45.190Z,88178.47
2022-08-17T03:34:29.961Z,88172.19
2022-08-17T03:37:14.957Z,88172.41
2022-08-17T03:39:59.593Z,88180.81
2022-08-17T03:42:44.756Z,88183.34
2022-08-17T03:45:29.448Z,88183.59
2022-08-17T03:48:18.140Z,88184.28
2022-08-17T03:51:02.990Z,88185.13
2022-08-17T03:53:47.604Z,88191.03
2022-08-17T03:56:32.375Z,88187.16
2022-08-17T03:59:21.055Z,88181.16
2022-08-17T04:02:07.253Z,88182.56
2022-08-17T04:04:52.225Z,88177.47
2022-08-17T04:07:37.581Z,88174.81
2022-08-17T04:10:25.989Z,88165.09
2022-08-17T04:13:11.572Z,88161.06
2022-08-17T04:15:56.406Z,88158.22
2022-08-17T04:18:41.563Z,88163.13
2022-08-17T04:21:26.535Z,88158.69
2022-08-17T04:24:11.193Z,88167.69
2022-08-17T04:26:56.099Z,88157.34
2022-08-17T04:29:55.072Z,88166.47
2022-08-17T04:33:03.493Z,88173.47
2022-08-17T04:35:45.696Z,88180.22
2022-08-17T04:38:30.402Z,88188.31
2022-08-17T04:41:15.138Z,88194.69
2022-08-17T04:43:59.805Z,88204.41
2022-08-17T04:46:44.680Z,88220.34
2022-08-17T04:49:29.518Z,88222.19
2022-08-17T04:52:29.845Z,88216.41
2022-08-17T04:55:19.263Z,88228.06
2022-08-17T04:58:04.085Z,88225.97
2022-08-17T05:00:48.850Z,88222.97
2022-08-17T05:03:33.959Z,88221.38
2022-08-17T05:06:18.712Z,88224.94
2022-08-17T05:09:03.507Z,88220.66
2022-08-17T05:11:48.362Z,88227.91
2022-08-17T05:14:33.983Z,88242.63
2022-08-17T05:17:18.946Z,88250.00
2022-08-17T05:20:03.658Z,88249.34
2022-08-17T05:22:48.446Z,88257.91
2022-08-17T05:25:34.564Z,88259.47
2022-08-17T05:28:23.507Z,88248.88
2022-08-17T05:31:09.384Z,88239.09
2022-08-17T05:33:54.183Z,88234.88
2022-08-17T05:36:43.442Z,88241.47
2022-08-17T05:39:29.481Z,88232.91
2022-08-17T05:42:15.908Z,88229.41
2022-08-17T05:45:00.837Z,88230.63
2022-08-17T05:47:45.680Z,88234.28
2022-08-17T05:50:30.935Z,88223.28
2022-08-17T05:53:15.658Z,88232.00
2022-08-17T05:56:00.478Z,88236.34
2022-08-17T05:58:45.158Z,88237.00
2022-08-17T06:01:30.138Z,88235.19
2022-08-17T06:04:15.878Z,88232.78
2022-08-17T06:07:00.679Z,88238.69
2022-08-17T06:09:45.453Z,88253.53
2022-08-17T06:12:30.209Z,88263.97
2022-08-17T06:15:16.488Z,88259.25
2022-08-17T06:18:01.311Z,88252.75
2022-08-17T06:20:46.161Z,88256.00
2022-08-17T06:23:30.912Z,88261.31
2022-08-17T06:26:15.782Z,88256.63
2022-08-17T06:29:00.566Z,88249.56
2022-08-17T06:31:45.343Z,88243.88
2022-08-17T06:34:30.158Z,88252.66
2022-08-17T06:37:15.027Z,88249.03
2022-08-17T06:39:59.903Z,88246.81
2022-08-17T06:43:02.358Z,88243.13
2022-08-17T06:45:49.620Z,88238.09
2022-08-17T06:48:34.416Z,88236.50
2022-08-17T06:51:19.202Z,88238.25
2022-08-17T06:54:04.009Z,88231.81
2022-08-17T06:56:53.694Z,88224.44
2022-08-17T06:59:55.163Z,88225.97
2022-08-17T07:02:51.324Z,88229.84
2022-08-17T07:05:38.810Z,88229.75
2022-08-17T07:08:29.679Z,88234.66
2022-08-17T07:11:16.398Z,88226.22
2022-08-17T07:14:01.268Z,88213.06
2022-08-17T07:16:46.064Z,88211.84
2022-08-17T07:19:30.800Z,88224.66
2022-08-17T07:22:15.800Z,88222.97
2022-08-17T07:25:00.667Z,88210.50
2022-08-17T07:27:45.383Z,88206.81
2022-08-17T07:30:30.163Z,88208.41
2022-08-17T07:33:15.410Z,88205.50
2022-08-17T07:36:00.191Z,88218.91
2022-08-17T07:38:45.063Z,88221.44
2022-08-17T07:41:53.402Z,88231.22
2022-08-17T07:44:34.896Z,88230.59
2022-08-17T07:47:20.660Z,88237.13
2022-08-17T07:50:05.437Z,88229.66
2022-08-17T07:52:51.714Z,88241.69
2022-08-17T07:55:37.352Z,88264.13
2022-08-17T07:58:22.137Z,88266.25
2022-08-17T08:01:06.872Z,88272.34
2022-08-17T08:03:52.752Z,88275.13
2022-08-17T08:06:38.079Z,88265.63
2022-08-17T08:09:22.830Z,88279.16
2022-08-17T08:12:07.636Z,88286.97
2022-08-17T08:15:00.946Z,88280.00
2022-08-17T08:17:45.668Z,88279.31
2022-08-17T08:20:51.029Z,88281.22
2022-08-17T08:23:35.415Z,88292.13
2022-08-17T08:26:20.269Z,88293.88
2022-08-17T08:29:05.111Z,88287.81
2022-08-17T08:31:49.889Z,88287.38
2022-08-17T08:35:00.559Z,88273.59
2022-08-17T08:37:42.991Z,88277.06
2022-08-17T08:40:28.622Z,88280.69
2022-08-17T08:43:13.419Z,88276.75
2022-08-17T08:45:58.534Z,88269.50
2022-08-17T08:48:56.564Z,88257.28
2022-08-17T08:51:45.776Z,88258.75
2022-08-17T08:54:30.423Z,88249.75
2022-08-17T08:57:26.878Z,88252.63
2022-08-17T09:00:14.002Z,88247.28
2022-08-17T09:02:58.904Z,88250.53
2022-08-17T09:05:43.562Z,88258.44
2022-08-17T09:08:28.210Z,88260.38
2022-08-17T09:11:12.791Z,88260.44
2022-08-17T09:13:57.503Z,88257.03
2022-08-17T09:16:42.097Z,88258.63
2022-08-17T09:19:26.861Z,88246.09
2022-08-17T09:22:11.640Z,88246.22
2022-08-17T09:24:56.385Z,88245.69
2022-08-17T09:27:41.244Z,88247.34
2022-08-17T09:30:25.958Z,88260.84
2022-08-17T09:33:10.807Z,88254.22
2022-08-17T09:35:55.573Z,88253.78
2022-08-17T09:38:40.306Z,88248.31
2022-08-17T09:41:25.113Z,88263.50
2022-08-17T09:44:23.027Z,88259.97
2022-08-17T09:47:08.778Z,88266.94
2022-08-17T09:49:53.515Z,88265.22
2022-08-17T09:52:38.197Z,88261.63
2022-08-17T09:55:22.933Z,88258.09
2022-08-17T09:58:08.177Z,88264.34
2022-08-17T10:00:52.983Z,88263.69
2022-08-17T10:03:38.267Z,88255.38
2022-08-17T10:06:22.967Z,88255.31
2022-08-17T10:09:08.026Z,88241.53
2022-08-17T10:11:53.043Z,88243.06
2022-08-17T10:14:44.145Z,88246.72
2022-08-17T10:17:29.730Z,88248.91
2022-08-17T10:20:14.452Z,88244.66
2022-08-17T10:22:59.253Z,88237.63
2022-08-17T10:25:59.517Z,88246.91
2022-08-17T10:28:44.478Z,88244.75
2022-08-17T10:31:36.555Z,88234.16
2022-08-17T10:34:21.524Z,88235.59
2022-08-17T10:37:06.097Z,88223.69
2022-08-17T10:39:52.809Z,88214.53
2022-08-17T10:42:38.192Z,88201.75
2022-08-17T10:45:22.964Z,88199.31
2022-08-17T10:48:07.886Z,88191.88
2022-08-17T10:50:52.868Z,88190.06
2022-08-17T10:53:37.788Z,88191.56
2022-08-17T10:56:25.476Z,88192.94
2022-08-17T10:59:10.224Z,88182.59
2022-08-17T11:01:54.883Z,88178.59
2022-08-17T11:04:40.084Z,88174.19
2022-08-17T11:07:25.069Z,88170.88
2022-08-17T11:10:09.792Z,88169.78
2022-08-17T11:12:54.838Z,88163.84
2022-08-17T11:15:39.611Z,88162.00
2022-08-17T11:18:24.358Z,88164.53
2022-08-17T11:21:09.208Z,88158.91
2022-08-17T11:23:54.073Z,88164.03
2022-08-17T11:26:38.781Z,88166.28
2022-08-17T11:29:24.785Z,88163.75
2022-08-17T11:32:11.111Z,88155.53
2022-08-17T11:34:56.398Z,88158.56
2022-08-17T11:37:41.219Z,88165.94
2022-08-17T11:40:25.790Z,88161.69
2022-08-17T11:43:11.615Z,88161.19
2022-08-17T11:45:56.504Z,88167.06
2022-08-17T11:48:41.341Z,88162.13
2022-08-17T11:51:26.316Z,88161.47
2022-08-17T11:57:15.685Z,88144.22
2022-08-17T12:00:00.387Z,88137.41
2022-08-17T12:02:48.087Z,88146.66
2022-08-17T12:05:33.450Z,88145.22
2022-08-17T12:08:18.085Z,88147.63
2022-08-17T12:11:02.941Z,88129.06
2022-08-17T12:13:47.584Z,88132.84
2022-08-17T12:16:32.662Z,88137.72
2022-08-17T12:19:17.843Z,88145.97
2022-08-17T12:22:02.574Z,88138.31
2022-08-17T12:24:47.534Z,88145.47
2022-08-17T12:28:04.466Z,88151.38
2022-08-17T12:30:37.243Z,88164.28
2022-08-17T12:33:27.943Z,88156.84
2022-08-17T12:36:13.729Z,88153.91
2022-08-17T12:38:58.309Z,88144.94
2022-08-17T12:41:43.167Z,88149.56
2022-08-17T12:44:28.013Z,88144.84
2022-08-17T12:47:14.871Z,88145.13
2022-08-17T12:50:02.052Z,88147.22
2022-08-17T12:52:46.651Z,88140.69
2022-08-17T12:55:33.810Z,88144.78
2022-08-17T12:58:19.126Z,88140.19
2022-08-17T13:01:04.434Z,88140.09
2022-08-17T13:03:49.224Z,88139.56
2022-08-17T13:06:34.042Z,88147.53
2022-08-17T13:09:18.852Z,88140.69
2022-08-17T13:12:03.453Z,88133.59
2022-08-17T13:14:50.442Z,88128.94
2022-08-17T13:17:35.096Z,88118.66
2022-08-17T13:20:19.815Z,88123.44
2022-08-17T13:23:08.724Z,88124.28
2022-08-17T13:25:56.921Z,88126.63
2022-08-17T13:28:41.621Z,88129.53
2022-08-17T13:31:26.468Z,88126.22
2022-08-17T13:34:11.204Z,88124.97
2022-08-17T13:36:56.027Z,88113.22
2022-08-17T13:39:41.805Z,88108.06
2022-08-17T13:42:26.953Z,88103.56
2022-08-17T13:45:35.037Z,88095.06
2022-08-17T13:48:16.413Z,88089.88
2022-08-17T13:51:01.305Z,88100.59
2022-08-17T13:53:45.891Z,88100.44
2022-08-17T13:56:33.504Z,88084.59
2022-08-17T13:59:53.078Z,88086.13
2022-08-17T14:02:28.839Z,88085.88
2022-08-17T14:05:13.727Z,88080.53
2022-08-17T14:07:59.100Z,88079.69
2022-08-17T14:10:43.865Z,88080.81
2022-08-17T14:13:28.611Z,88079.44
2022-08-17T14:16:13.611Z,88076.03
2022-08-17T14:18:58.369Z,88080.06
2022-08-17T14:21:43.182Z,88072.31
2022-08-17T14:24:27.837Z,88072.22
2022-08-17T14:27:12.589Z,88078.66
2022-08-17T14:29:57.355Z,88090.47
2022-08-17T14:32:42.199Z,88102.47
2022-08-17T14:35:26.958Z,88115.00
2022-08-17T14:38:11.554Z,88118.72
2022-08-17T14:40:56.363Z,88119.53
2022-08-17T14:43:41.221Z,88111.72
2022-08-17T14:46:26.044Z,88109.00
2022-08-17T14:49:10.840Z,88102.66
2022-08-17T14:51:55.693Z,88095.66
2022-08-17T14:54:45.550Z,88100.50
2022-08-17T14:57:34.023Z,88097.81
2022-08-17T15:00:19.294Z,88094.06
2022-08-17T15:03:04.051Z,88096.50
2022-08-17T15:05:48.937Z,88103.06
2022-08-17T15:08:33.800Z,88100.72
2022-08-17T15:11:18.588Z,88096.09
2022-08-17T15:14:03.487Z,88083.25
2022-08-17T15:16:48.277Z,88081.63
2022-08-17T15:19:33.100Z,88075.63
2022-08-17T15:22:17.681Z,88068.78
2022-08-17T15:25:02.320Z,88065.53
2022-08-17T15:27:46.992Z,88065.19
2022-08-17T15:30:32.213Z,88065.97
2022-08-17T15:33:16.895Z,88061.25
2022-08-17T15:36:01.558Z,88043.56
2022-08-17T15:38:46.567Z,88051.25
2022-08-17T15:41:31.379Z,88041.28
2022-08-17T15:44:16.181Z,88045.97
2022-08-17T15:47:00.875Z,88046.88
2022-08-17T15:49:45.672Z,88038.66
2022-08-17T15:52:30.386Z,88031.53
2022-08-17T15:55:15.316Z,88025.56
2022-08-17T15:57:59.940Z,88007.34
2022-08-17T16:01:14.108Z,88007.41
2022-08-17T16:04:06.921Z,87993.34
2022-08-17T16:06:52.534Z,87997.22
2022-08-17T16:09:37.706Z,88001.88
2022-08-17T16:12:22.509Z,87993.94
2022-08-17T16:15:07.162Z,88001.38
2022-08-17T16:17:52.203Z,87985.47
2022-08-17T16:20:37.197Z,87971.34
2022-08-17T16:23:22.105Z,87970.41
2022-08-17T16:26:06.805Z,87974.25
2022-08-17T16:28:51.736Z,87975.34
2022-08-17T16:31:36.375Z,87963.97
2022-08-17T16:34:21.153Z,87972.03
2022-08-17T16:37:06.005Z,87971.25
2022-08-17T16:39:50.771Z,87967.09
2022-08-17T16:42:36.070Z,87965.66
2022-08-17T16:45:20.775Z,87969.66
2022-08-17T16:48:05.552Z,87970.69
2022-08-17T16:51:03.126Z,87975.78
2022-08-17T16:53:49.241Z,87985.59
2022-08-17T16:56:44.143Z,87994.63
2022-08-17T16:59:38.859Z,88001.81
2022-08-17T17:02:27.603Z,88007.56
2022-08-17T17:05:12.363Z,88010.69
2022-08-17T17:07:57.053Z,88003.81
2022-08-17T17:10:41.923Z,88010.25
2022-08-17T17:13:26.605Z,88015.28
2022-08-17T17:16:11.467Z,88032.56
2022-08-17T17:18:56.143Z,88033.78
2022-08-17T17:21:40.855Z,88036.94
2022-08-17T17:24:25.672Z,88042.16
2022-08-17T17:27:14.893Z,88043.31
2022-08-17T17:29:59.676Z,88047.88
2022-08-17T17:32:44.429Z,88055.41
2022-08-17T17:35:29.157Z,88064.09
2022-08-17T17:38:13.850Z,88068.84
2022-08-17T17:41:02.385Z,88064.72
2022-08-17T17:43:48.019Z,88073.06
2022-08-17T17:46:32.688Z,88076.28
2022-08-17T17:49:17.506Z,88072.72
2022-08-17T17:52:10.115Z,88085.94
2022-08-17T17:54:56.995Z,88089.06
2022-08-17T17:57:41.712Z,88088.31
2022-08-17T18:00:26.607Z,88099.28
2022-08-17T18:03:11.283Z,88094.13
2022-08-17T18:05:56.210Z,88108.69
2022-08-17T18:08:41.419Z,88110.88
2022-08-17T18:11:33.050Z,88123.47
2022-08-17T18:14:20.209Z,88126.38
2022-08-17T18:17:04.905Z,88141.97
2022-08-17T18:19:49.550Z,88147.91
2022-08-17T18:22:34.238Z,88157.66
2022-08-17T18:25:18.927Z,88160.31
2022-08-17T18:28:03.899Z,88171.69
2022-08-17T18:30:48.607Z,88173.56
2022-08-17T18:33:33.527Z,88188.50
2022-08-17T18:36:18.282Z,88187.25
2022-08-17T18:39:03.119Z,88213.94
2022-08-17T18:41:47.879Z,88224.38
2022-08-17T18:44:32.779Z,88238.53
2022-08-17T18:47:17.464Z,88238.59
2022-08-17T18:50:02.099Z,88242.84
2022-08-17T18:52:46.921Z,88262.56
2022-08-17T18:55:31.667Z,88262.31
2022-08-17T18:58:16.636Z,88272.94
2022-08-17T19:01:01.433Z,88279.53
2022-08-17T19:03:46.309Z,88283.56
2022-08-17T19:06:31.043Z,88299.16
2022-08-17T19:09:15.857Z,88298.72
2022-08-17T19:12:01.717Z,88306.25
2022-08-17T19:14:46.766Z,88318.19
2022-08-17T19:17:31.662Z,88324.78
2022-08-17T19:20:16.364Z,88345.25
2022-08-17T19:23:01.070Z,88351.84
2022-08-17T19:25:45.647Z,88364.81
2022-08-17T19:28:30.443Z,88359.78
2022-08-17T19:31:15.252Z,88359.03
2022-08-17T19:33:59.874Z,88386.91
2022-08-17T19:36:44.640Z,88391.81
2022-08-17T19:39:38.055Z,88397.22
2022-08-17T19:42:23.499Z,88408.59
2022-08-17T19:45:08.233Z,88410.56
2022-08-17T19:48:02.790Z,88419.44
2022-08-17T19:50:48.355Z,88426.81
2022-08-17T19:53:54.047Z,88434.63
2022-08-17T19:56:38.316Z,88432.56
2022-08-17T19:59:23.200Z,88426.53
2022-08-17T20:02:07.950Z,88429.50
2022-08-17T20:04:52.654Z,88442.28
2022-08-17T20:07:37.606Z,88437.25
2022-08-17T20:10:22.409Z,88451.81
2022-08-17T20:13:07.104Z,88462.94
2022-08-17T20:15:51.901Z,88469.28
2022-08-17T20:18:37.108Z,88477.00
2022-08-17T20:21:21.863Z,88474.50
2022-08-17T20:24:06.596Z,88486.31
2022-08-17T20:26:55.225Z,88497.03
2022-08-17T20:29:43.414Z,88501.00
2022-08-17T20:32:28.091Z,88496.06
2022-08-17T20:35:12.859Z,88500.13
2022-08-17T20:37:57.542Z,88500.81
2022-08-17T20:40:42.299Z,88503.56
2022-08-17T20:43:27.068Z,88506.31
2022-08-17T20:46:11.947Z,88511.06
2022-08-17T20:48:56.816Z,88523.91
2022-08-17T20:51:41.482Z,88524.47
2022-08-17T20:54:45.714Z,88530.72
2022-08-17T20:57:30.445Z,88522.06
2022-08-17T21:00:15.194Z,88530.28
2022-08-17T21:02:59.983Z,88532.44
2022-08-17T21:05:44.737Z,88521.94
2022-08-17T21:08:37.069Z,88532.50
2022-08-17T21:11:21.958Z,88522.69
2022-08-17T21:14:26.775Z,88523.81
2022-08-17T21:17:14.434Z,88515.50
2022-08-17T21:20:14.547Z,88517.25
2022-08-17T21:22:59.442Z,88513.81
2022-08-17T21:25:44.337Z,88509.25
2022-08-17T21:28:33.674Z,88501.50
2022-08-17T21:31:19.196Z,88499.34
2022-08-17T21:34:05.993Z,88498.63
2022-08-17T21:36:51.495Z,88485.28
2022-08-17T21:39:36.590Z,88484.34
2022-08-17T21:42:21.584Z,88493.72
2022-08-17T21:45:06.349Z,88509.81
2022-08-17T21:47:51.257Z,88512.72
2022-08-17T21:50:36.452Z,88512.41
2022-08-17T21:53:21.372Z,88511.38
2022-08-17T21:56:06.193Z,88512.91
2022-08-17T21:58:50.799Z,88522.25
2022-08-17T22:01:35.701Z,88525.84
2022-08-17T22:04:20.717Z,88528.75
2022-08-17T22:07:05.544Z,88533.34
2022-08-17T22:09:50.229Z,88541.84
2022-08-17T22:12:34.957Z,88543.75
2022-08-17T22:15:19.619Z,88555.84
2022-08-17T22:18:04.496Z,88560.44
2022-08-17T22:20:49.269Z,88547.22
2022-08-17T22:23:34.026Z,88549.44
2022-08-17T22:26:18.777Z,88554.03
2022-08-17T22:29:03.569Z,88557.69
2022-08-17T22:31:48.476Z,88548.94
2022-08-17T22:34:33.112Z,88551.59
2022-08-17T22:37:17.846Z,88541.72
2022-08-17T22:40:02.495Z,88522.28
2022-08-17T22:42:47.402Z,88510.47
2022-08-17T22:45:32.011Z,88510.88
2022-08-17T22:48:16.968Z,88511.72
2022-08-17T22:51:01.674Z,88504.22
2022-08-17T22:53:46.415Z,88501.69
2022-08-17T22:56:32.305Z,88494.91
2022-08-17T22:59:17.048Z,88484.34
2022-08-17T23:02:01.757Z,88484.34
2022-08-17T23:04:46.516Z,88482.13
2022-08-17T23:07:31.417Z,88482.38
2022-08-17T23:10:16.225Z,88474.59
2022-08-17T23:13:01.046Z,88460.06
2022-08-17T23:15:46.273Z,88448.53
2022-08-17T23:18:31.002Z,88451.91
2022-08-17T23:21:16.108Z,88450.06
2022-08-17T23:24:11.937Z,88454.78
2022-08-17T23:26:56.585Z,88450.19
2022-08-17T23:29:41.434Z,88443.09
2022-08-17T23:32:26.090Z,88428.78
2022-08-17T23:35:10.916Z,88427.78
2022-08-17T23:37:55.742Z,88411.13
2022-08-17T23:40:40.715Z,88411.25
2022-08-17T23:43:28.150Z,88408.88
2022-08-17T23:46:13.148Z,88405.75
2022-08-17T23:48:57.817Z,88399.16
2022-08-17T23:51:42.820Z,88394.50
2022-08-17T23:54:27.636Z,88394.94
2022-08-17T23:57:12.447Z,88391.34
2022-08-17T23:59:57.260Z,88396.38
